Time;durP1;ratioP1;P1;durP2;ratioP2;P2;SDS_P1;SDS_P2;PMS_P1;PMS_P2;Temp;Humidity;BMP_temperature;BMP_pressure;BME280_temperature;BME280_humidity;BME280_pressure;Samples;Min_cycle;Max_cycle;Signal;HPM_P1;HPM_P2
2024/01/08 00:00:58;;;;;;;0.00;0.00;;;;;;;2.60;56.68;99224.75;4447946;32;34320;-80
2024/01/08 00:03:27;;;;;;;0.90;0.90;;;;;;;2.36;56.71;99228.69;4461133;32;33700;-80
2024/01/08 00:05:55;;;;;;;1.60;1.52;;;;;;;2.28;57.81;99223.66;4449517;32;34263;-80
2024/01/08 00:08:23;;;;;;;2.87;1.75;;;;;;;2.27;57.74;99232.34;4462611;32;33942;-81
2024/01/08 00:10:52;;;;;;;1.10;1.10;;;;;;;2.31;58.21;99236.59;4450686;32;31391;-81
2024/01/08 00:13:19;;;;;;;1.05;1.00;;;;;;;2.51;57.52;99232.75;4451771;32;34359;-82
2024/01/08 00:15:47;;;;;;;3.53;2.20;;;;;;;2.78;56.23;99244.38;4437008;32;32723;-82
2024/01/08 00:18:15;;;;;;;0.20;0.20;;;;;;;2.49;56.99;99244.97;4448988;32;34059;-83
2024/01/08 00:20:42;;;;;;;0.20;0.20;;;;;;;2.51;57.00;99243.19;4446186;32;32647;-82
2024/01/08 00:23:10;;;;;;;7.45;2.37;;;;;;;2.74;56.51;99250.53;4453150;32;32358;-83
2024/01/08 00:25:38;;;;;;;1.45;1.45;;;;;;;2.90;55.27;99243.25;4464552;32;32818;-82
2024/01/08 00:28:05;;;;;;;0.90;0.90;;;;;;;2.71;56.35;99241.03;4449666;32;33116;-82
2024/01/08 00:30:32;;;;;;;2.20;1.85;;;;;;;2.60;56.67;99252.56;4456528;32;33270;-82
2024/01/08 00:33:00;;;;;;;0.40;0.40;;;;;;;2.45;56.90;99257.19;4450003;32;32648;-82
2024/01/08 00:35:28;;;;;;;1.10;0.80;;;;;;;2.43;57.60;99260.72;4450532;32;32761;-82
2024/01/08 00:37:56;;;;;;;0.28;0.28;;;;;;;2.78;55.88;99273.03;4452594;32;34051;-82
2024/01/08 00:40:24;;;;;;;0.15;0.15;;;;;;;2.56;56.80;99267.41;4435162;32;33126;-82
2024/01/08 00:42:52;;;;;;;0.13;0.13;;;;;;;1.97;58.41;99277.19;4447026;32;34115;-82
2024/01/08 00:45:19;;;;;;;1.67;1.60;;;;;;;2.08;58.05;99280.44;4447351;32;34976;-82
2024/01/08 00:47:48;;;;;;;0.25;0.25;;;;;;;2.10;58.48;99278.69;4451977;32;33654;-82
2024/01/08 00:50:16;;;;;;;0.57;0.25;;;;;;;2.24;58.05;99281.91;4469513;32;33206;-82
2024/01/08 00:52:44;;;;;;;1.65;1.17;;;;;;;2.20;58.46;99285.47;4444079;32;32129;-82
2024/01/08 00:55:12;;;;;;;13.43;1.08;;;;;;;2.46;57.66;99291.91;4450145;32;32873;-82
2024/01/08 00:57:40;;;;;;;0.00;0.00;;;;;;;2.37;58.08;99284.28;4462677;32;34523;-82
2024/01/08 01:00:11;;;;;;;0.03;0.03;;;;;;;2.45;57.93;99290.22;4454611;32;34071;-82
2024/01/08 01:02:40;;;;;;;4.10;3.00;;;;;;;2.36;58.20;99300.81;4449558;32;34510;-82
2024/01/08 01:05:08;;;;;;;2.60;1.75;;;;;;;2.51;58.32;99305.72;4442106;32;32613;-82
2024/01/08 01:07:36;;;;;;;0.55;0.55;;;;;;;2.52;58.29;99297.03;4462155;32;33685;-82
2024/01/08 01:10:04;;;;;;;0.28;0.28;;;;;;;2.18;58.99;99297.63;4447101;32;33238;-82
2024/01/08 01:12:31;;;;;;;0.50;0.50;;;;;;;2.33;58.22;99304.34;4449930;32;33659;-82
2024/01/08 01:14:59;;;;;;;0.77;0.77;;;;;;;2.27;58.30;99305.28;4463000;32;34514;-82
2024/01/08 01:17:27;;;;;;;2.33;2.15;;;;;;;2.29;58.34;99307.87;4438350;32;32574;-82
2024/01/08 01:19:55;;;;;;;0.10;0.10;;;;;;;2.10;59.06;99307.34;4448172;32;33428;-82
2024/01/08 01:22:23;;;;;;;0.15;0.15;;;;;;;2.27;58.16;99310.50;4450118;32;32896;-82
2024/01/08 01:24:51;;;;;;;1.52;1.48;;;;;;;2.03;59.58;99318.75;4444257;32;32622;-82
2024/01/08 01:27:19;;;;;;;0.75;0.75;;;;;;;2.36;58.58;99321.66;4466317;32;34129;-81
2024/01/08 01:29:46;;;;;;;0.13;0.13;;;;;;;2.46;57.91;99307.56;4451073;32;33439;-81
2024/01/08 01:32:14;;;;;;;0.98;0.98;;;;;;;2.29;57.72;99313.94;4461684;32;33907;-81
2024/01/08 01:34:42;;;;;;;0.20;0.20;;;;;;;2.36;58.02;99314.69;4462854;32;33575;-80
2024/01/08 01:37:10;;;;;;;1.15;1.05;;;;;;;2.03;58.95;99313.53;4447512;32;33980;-80
2024/01/08 01:39:38;;;;;;;0.55;0.30;;;;;;;2.24;57.80;99313.19;4437171;32;32338;-80
2024/01/08 01:42:06;;;;;;;0.30;0.30;;;;;;;2.37;57.81;99305.97;4465932;32;34591;-80
2024/01/08 01:44:34;;;;;;;1.08;1.08;;;;;;;2.26;57.06;99300.97;4448576;32;32185;-80
2024/01/08 01:47:02;;;;;;;0.10;0.10;;;;;;;2.13;57.80;99307.28;4435408;32;33285;-80
2024/01/08 01:49:30;;;;;;;0.60;0.40;;;;;;;2.15;57.64;99308.13;4460205;32;33286;-80
2024/01/08 01:51:58;;;;;;;0.00;0.00;;;;;;;1.66;59.70;99314.16;4461952;32;34139;-82
2024/01/08 01:54:27;;;;;;;0.28;0.28;;;;;;;2.15;58.14;99302.91;4449415;32;33994;-80
2024/01/08 01:56:59;;;;;;;0.73;0.73;;;;;;;1.72;59.85;99302.78;4457848;32;34098;-80
2024/01/08 01:59:28;;;;;;;1.85;0.57;;;;;;;1.91;59.59;99303.34;4461110;32;34333;-80
2024/01/08 02:01:57;;;;;;;1.15;0.90;;;;;;;1.97;59.47;99298.03;4448330;32;32018;-80
2024/01/08 02:04:28;;;;;;;1.45;1.08;;;;;;;1.68;61.06;99312.38;4459760;32;33678;-79
2024/01/08 02:06:56;;;;;;;2.72;1.50;;;;;;;2.03;60.24;99310.94;4434604;32;33984;-80
2024/01/08 02:09:25;;;;;;;0.00;0.00;;;;;;;2.15;60.12;99318.53;4448139;32;33860;-80
2024/01/08 02:11:52;;;;;;;0.47;0.47;;;;;;;2.02;60.42;99315.28;4448253;32;33401;-81
2024/01/08 02:14:24;;;;;;;0.55;0.55;;;;;;;1.87;61.65;99325.94;4450439;32;32714;-80
2024/01/08 02:16:52;;;;;;;0.73;0.73;;;;;;;2.31;60.22;99321.72;4450532;32;34637;-81
2024/01/08 02:19:20;;;;;;;0.73;0.73;;;;;;;1.98;60.70;99336.19;4445983;32;33396;-81
2024/01/08 02:21:49;;;;;;;0.93;0.90;;;;;;;1.55;62.50;99334.25;4446341;32;33850;-81
2024/01/08 02:24:17;;;;;;;0.60;0.60;;;;;;;1.90;61.62;99336.31;4441503;32;32598;-81
2024/01/08 02:26:44;;;;;;;0.10;0.10;;;;;;;1.79;61.13;99330.41;4447955;32;33586;-81
2024/01/08 02:29:12;;;;;;;0.10;0.10;;;;;;;1.48;61.71;99332.63;4449976;32;32721;-80
2024/01/08 02:31:40;;;;;;;0.37;0.37;;;;;;;1.80;60.94;99326.91;4461200;32;33030;-80
2024/01/08 02:34:08;;;;;;;0.28;0.28;;;;;;;1.70;60.53;99331.41;4447779;32;33905;-80
2024/01/08 02:36:35;;;;;;;0.15;0.15;;;;;;;1.87;59.48;99322.50;4449506;32;32113;-80
2024/01/08 02:39:03;;;;;;;1.60;1.55;;;;;;;1.79;59.22;99333.88;4458843;32;32515;-81
2024/01/08 02:41:31;;;;;;;0.00;0.00;;;;;;;1.13;61.58;99336.56;4448776;32;34586;-81
2024/01/08 02:43:58;;;;;;;0.62;0.62;;;;;;;1.75;58.43;99334.81;4448856;32;32883;-81
2024/01/08 02:46:26;;;;;;;0.00;0.00;;;;;;;1.64;58.38;99338.47;4446398;32;33567;-79
2024/01/08 02:48:54;;;;;;;0.62;0.62;;;;;;;1.59;58.14;99335.94;4448730;32;33584;-81
2024/01/08 02:51:21;;;;;;;0.00;0.00;;;;;;;1.33;59.17;99343.22;4446872;32;34005;-81
2024/01/08 02:53:49;;;;;;;0.10;0.10;;;;;;;1.76;57.32;99339.16;4446213;32;33796;-81
2024/01/08 02:56:19;;;;;;;1.00;0.95;;;;;;;1.72;57.65;99345.28;4439198;32;32390;-81
2024/01/08 02:58:47;;;;;;;0.30;0.30;;;;;;;2.02;56.89;99338.72;4448673;32;33514;-82
2024/01/08 03:01:15;;;;;;;0.10;0.10;;;;;;;1.66;58.12;99358.38;4460925;32;33429;-82
2024/01/08 03:03:43;;;;;;;0.40;0.28;;;;;;;1.79;57.94;99351.22;4460403;32;33756;-81
2024/01/08 03:06:11;;;;;;;0.43;0.30;;;;;;;2.04;56.47;99346.50;4451815;32;34498;-81
2024/01/08 03:08:39;;;;;;;0.43;0.43;;;;;;;1.60;58.30;99362.81;4437628;32;32507;-81
2024/01/08 03:11:07;;;;;;;0.13;0.13;;;;;;;2.05;56.98;99356.06;4463135;32;35000;-81
2024/01/08 03:13:35;;;;;;;0.20;0.20;;;;;;;1.86;57.57;99378.06;4450389;32;34414;-81
2024/01/08 03:16:03;;;;;;;0.10;0.10;;;;;;;1.90;57.83;99374.50;4448800;32;33064;-81
2024/01/08 03:18:31;;;;;;;5.68;1.40;;;;;;;1.69;59.02;99376.53;4454919;32;33527;-81
2024/01/08 03:21:00;;;;;;;2.00;1.55;;;;;;;1.60;60.15;99384.47;4449814;32;32761;-81
2024/01/08 03:23:28;;;;;;;0.15;0.15;;;;;;;1.54;60.39;99388.03;4450846;32;32824;-81
2024/01/08 03:25:55;;;;;;;0.73;0.73;;;;;;;1.37;61.40;99392.59;4469504;32;34466;-81
2024/01/08 03:28:23;;;;;;;0.03;0.03;;;;;;;1.56;61.07;99394.94;4459691;32;33421;-81
2024/01/08 03:30:51;;;;;;;2.92;0.90;;;;;;;1.28;62.53;99397.91;4460078;32;33531;-80
2024/01/08 03:33:19;;;;;;;0.68;0.68;;;;;;;1.64;61.41;99401.78;4451079;32;34050;-80
2024/01/08 03:35:47;;;;;;;0.10;0.10;;;;;;;1.36;62.35;99395.22;4453692;32;32374;-79
2024/01/08 03:38:15;;;;;;;3.30;2.22;;;;;;;1.49;62.24;99399.41;4454917;32;34251;-79
2024/01/08 03:40:44;;;;;;;1.77;0.32;;;;;;;1.64;60.99;99399.19;4450092;32;33780;-79
2024/01/08 03:43:12;;;;;;;0.57;0.57;;;;;;;1.57;60.79;99404.47;4468020;32;35268;-79
2024/01/08 03:45:39;;;;;;;1.02;0.77;;;;;;;1.68;60.06;99406.06;4460712;32;34489;-79
2024/01/08 03:48:08;;;;;;;0.00;0.00;;;;;;;1.82;59.44;99412.81;4449927;32;33016;-79
2024/01/08 03:50:36;;;;;;;0.20;0.20;;;;;;;1.93;59.25;99410.91;4446470;32;33022;-79
2024/01/08 03:53:03;;;;;;;0.45;0.45;;;;;;;1.87;58.50;99419.69;4447611;32;33892;-79
2024/01/08 03:55:33;;;;;;;0.35;0.35;;;;;;;1.92;58.41;99419.59;4469386;32;33475;-79
2024/01/08 03:58:01;;;;;;;2.42;2.22;;;;;;;1.84;58.03;99426.66;4451655;32;32406;-79
2024/01/08 04:00:30;;;;;;;0.00;0.00;;;;;;;1.62;58.92;99426.97;4447387;32;34457;-79
2024/01/08 04:02:57;;;;;;;1.62;1.52;;;;;;;1.56;59.61;99426.19;4450235;32;33910;-80
2024/01/08 04:05:25;;;;;;;0.05;0.05;;;;;;;1.96;57.28;99421.28;4468248;32;33114;-79
2024/01/08 04:07:53;;;;;;;2.05;1.50;;;;;;;1.37;59.79;99428.16;4435121;32;33688;-79
2024/01/08 04:10:21;;;;;;;1.85;1.75;;;;;;;1.61;58.62;99429.56;4447649;32;35073;-79
2024/01/08 04:12:48;;;;;;;0.62;0.62;;;;;;;1.54;58.89;99442.69;4461851;32;33290;-79
2024/01/08 04:15:16;;;;;;;2.53;1.80;;;;;;;1.11;60.40;99441.47;4449846;32;33934;-79
2024/01/08 04:17:44;;;;;;;0.10;0.10;;;;;;;0.78;61.96;99446.16;4436202;32;32625;-79
2024/01/08 04:20:12;;;;;;;3.10;0.62;;;;;;;1.11;60.80;99442.34;4449745;32;33683;-80
2024/01/08 04:22:43;;;;;;;1.65;0.88;;;;;;;1.25;59.95;99437.84;4462871;32;33895;-79
2024/01/08 04:25:11;;;;;;;3.45;3.20;;;;;;;1.66;58.35;99443.38;4450960;32;32841;-79
2024/01/08 04:27:39;;;;;;;0.20;0.20;;;;;;;1.50;58.50;99447.94;4434910;32;33031;-79
2024/01/08 04:30:07;;;;;;;1.00;1.00;;;;;;;0.96;60.57;99445.13;4465351;32;33774;-79
2024/01/08 04:32:36;;;;;;;0.75;0.75;;;;;;;1.08;60.17;99460.56;4439766;32;34761;-81
2024/01/08 04:35:04;;;;;;;0.00;0.00;;;;;;;0.96;60.40;99465.91;4461953;32;33468;-79
2024/01/08 04:37:33;;;;;;;1.08;0.37;;;;;;;1.37;58.78;99451.56;4449552;32;32317;-79
2024/01/08 04:40:03;;;;;;;1.33;1.23;;;;;;;1.13;59.29;99469.16;4460448;32;33901;-79
2024/01/08 04:42:30;;;;;;;0.77;0.77;;;;;;;0.83;60.18;99477.31;4448154;32;32926;-79
2024/01/08 04:44:59;;;;;;;0.00;0.00;;;;;;;1.35;58.85;99476.75;4450747;32;33853;-79
2024/01/08 04:47:27;;;;;;;0.30;0.30;;;;;;;1.55;57.99;99472.16;4448964;32;33348;-79
2024/01/08 04:49:54;;;;;;;0.10;0.10;;;;;;;1.28;58.73;99476.84;4446733;32;34152;-80
2024/01/08 04:52:22;;;;;;;1.48;0.93;;;;;;;1.73;56.61;99481.47;4463028;32;34090;-80
2024/01/08 04:54:50;;;;;;;0.00;0.00;;;;;;;1.35;57.42;99482.81;4449350;32;35258;-82
2024/01/08 04:57:18;;;;;;;0.00;0.00;;;;;;;1.06;58.05;99490.06;4467833;32;33211;-83
2024/01/08 04:59:45;;;;;;;1.73;1.62;;;;;;;1.24;57.50;99490.75;4451397;32;34711;-82
2024/01/08 05:02:14;;;;;;;0.30;0.30;;;;;;;0.61;60.41;99500.84;4448255;32;33055;-80
2024/01/08 05:04:41;;;;;;;0.70;0.70;;;;;;;0.97;58.96;99493.62;4474182;32;33929;-80
2024/01/08 05:07:12;;;;;;;1.92;0.80;;;;;;;1.21;57.81;99490.75;4450649;32;33130;-82
2024/01/08 05:09:41;;;;;;;0.43;0.43;;;;;;;0.91;58.74;99493.69;4448280;32;34516;-80
2024/01/08 05:12:08;;;;;;;0.32;0.32;;;;;;;1.29;57.59;99490.69;4440549;32;32794;-80
2024/01/08 05:14:36;;;;;;;0.95;0.95;;;;;;;1.11;58.30;99496.94;4449162;32;34052;-82
2024/01/08 05:17:04;;;;;;;0.65;0.65;;;;;;;0.90;59.37;99500.63;4433601;32;33377;-82
2024/01/08 05:19:31;;;;;;;1.27;1.25;;;;;;;0.78;59.84;99508.53;4437749;32;34140;-82
2024/01/08 05:21:59;;;;;;;0.85;0.85;;;;;;;1.05;58.57;99506.56;4447256;32;33099;-82
2024/01/08 05:24:27;;;;;;;1.70;1.58;;;;;;;1.09;58.11;99514.28;4451762;32;32313;-82
2024/01/08 05:26:54;;;;;;;0.37;0.37;;;;;;;0.62;59.67;99522.50;4445968;32;32804;-81
2024/01/08 05:29:22;;;;;;;3.12;1.50;;;;;;;0.97;58.64;99524.81;4475022;32;33731;-82
2024/01/08 05:31:50;;;;;;;0.10;0.10;;;;;;;0.82;58.78;99525.81;4447140;32;33049;-82
2024/01/08 05:34:17;;;;;;;0.30;0.30;;;;;;;0.93;58.96;99529.19;4438810;32;34158;-82
2024/01/08 05:36:45;;;;;;;0.00;0.00;;;;;;;1.07;58.59;99523.84;4450909;32;33320;-82
2024/01/08 05:39:13;;;;;;;0.95;0.88;;;;;;;1.08;58.79;99540.31;4459995;32;34192;-82
2024/01/08 05:41:40;;;;;;;0.85;0.52;;;;;;;1.32;57.73;99536.59;4446085;32;34382;-82
2024/01/08 05:44:08;;;;;;;1.35;1.25;;;;;;;0.73;59.73;99544.94;4462378;32;34575;-82
2024/01/08 05:46:44;;;;;;;0.00;0.00;;;;;;;0.85;59.85;99550.91;4458208;32;32026;-84
2024/01/08 05:49:12;;;;;;;0.37;0.37;;;;;;;0.70;60.08;99547.56;4449534;32;33821;-83
2024/01/08 05:51:40;;;;;;;5.62;1.48;;;;;;;0.90;59.46;99551.72;4448461;32;32928;-84
2024/01/08 05:54:08;;;;;;;6.35;2.10;;;;;;;0.70;60.49;99557.09;4449661;32;33970;-84
2024/01/08 05:56:37;;;;;;;0.13;0.13;;;;;;;1.39;57.96;99553.88;4433672;32;32389;-84
2024/01/08 05:59:07;;;;;;;0.08;0.08;;;;;;;1.10;58.48;99557.63;4445844;32;33649;-84
2024/01/08 06:01:35;;;;;;;1.25;1.25;;;;;;;0.66;59.70;99556.25;4436095;32;33003;-82
2024/01/08 06:04:04;;;;;;;0.30;0.30;;;;;;;1.20;57.35;99556.66;4473231;32;34131;-83
2024/01/08 06:06:31;;;;;;;0.22;0.22;;;;;;;0.98;58.18;99557.72;4448855;32;33517;-82
2024/01/08 06:08:59;;;;;;;2.35;1.90;;;;;;;1.54;56.18;99558.91;4437147;32;33179;-82
2024/01/08 06:11:27;;;;;;;0.20;0.20;;;;;;;1.39;57.25;99561.69;4446700;32;33429;-82
2024/01/08 06:13:55;;;;;;;3.47;3.17;;;;;;;0.86;58.22;99574.31;4463430;32;34602;-81
2024/01/08 06:16:23;;;;;;;1.27;1.20;;;;;;;1.30;57.06;99566.97;4451369;32;33118;-82
2024/01/08 06:18:51;;;;;;;0.22;0.22;;;;;;;1.10;57.26;99574.97;4462214;32;33739;-82
2024/01/08 06:21:18;;;;;;;2.05;1.17;;;;;;;0.53;59.81;99575.44;4467349;32;34026;-83
2024/01/08 06:23:46;;;;;;;0.62;0.62;;;;;;;1.07;57.31;99580.19;4440161;32;33060;-82
2024/01/08 06:26:16;;;;;;;1.60;1.58;;;;;;;0.96;57.53;99588.09;4449109;32;33070;-83
2024/01/08 06:28:44;;;;;;;0.77;0.77;;;;;;;0.97;57.80;99587.22;4448524;32;32506;-83
2024/01/08 06:31:13;;;;;;;0.77;0.77;;;;;;;1.06;56.98;99587.13;4438783;32;32835;-83
2024/01/08 06:33:42;;;;;;;0.75;0.75;;;;;;;0.58;58.66;99601.38;4455845;32;33842;-83
2024/01/08 06:36:09;;;;;;;0.40;0.40;;;;;;;1.01;56.95;99596.72;4452680;32;32513;-83
2024/01/08 06:38:37;;;;;;;4.37;2.97;;;;;;;0.68;58.01;99603.88;4435685;32;32796;-83
2024/01/08 06:41:05;;;;;;;2.22;2.08;;;;;;;1.02;57.36;99609.69;4463690;32;33767;-83
2024/01/08 06:43:33;;;;;;;0.00;0.00;;;;;;;0.50;58.80;99611.81;4464062;32;33273;-83
2024/01/08 06:46:01;;;;;;;0.60;0.60;;;;;;;1.12;56.22;99617.41;4462456;32;32072;-83
2024/01/08 06:48:29;;;;;;;1.42;1.33;;;;;;;1.28;55.38;99627.69;4431934;32;32376;-83
2024/01/08 06:51:00;;;;;;;0.25;0.25;;;;;;;1.19;56.04;99619.97;4458836;32;33433;-83
2024/01/08 06:53:28;;;;;;;3.92;2.75;;;;;;;0.51;58.24;99626.50;4463315;32;33931;-83
2024/01/08 06:55:56;;;;;;;0.00;0.00;;;;;;;1.09;55.87;99633.91;4450603;32;33310;-83
2024/01/08 06:58:24;;;;;;;1.58;1.48;;;;;;;0.57;57.57;99636.88;4446319;32;33427;-83
2024/01/08 07:00:51;;;;;;;0.50;0.50;;;;;;;0.80;56.97;99641.91;4446066;32;34306;-82
2024/01/08 07:03:19;;;;;;;0.50;0.50;;;;;;;0.95;56.25;99635.75;4438280;32;33702;-83
2024/01/08 07:05:48;;;;;;;0.20;0.20;;;;;;;1.09;56.06;99641.69;4437114;32;32683;-83
2024/01/08 07:08:17;;;;;;;0.57;0.57;;;;;;;1.16;55.73;99640.78;4448937;32;34163;-83
2024/01/08 07:10:45;;;;;;;0.85;0.85;;;;;;;1.62;53.93;99650.78;4451086;32;32941;-83
2024/01/08 07:13:14;;;;;;;0.60;0.60;;;;;;;1.36;54.98;99657.97;4453212;32;31839;-82
2024/01/08 07:15:45;;;;;;;1.00;0.90;;;;;;;1.57;54.29;99652.56;4465001;32;33078;-82
2024/01/08 07:18:13;;;;;;;0.75;0.68;;;;;;;0.72;56.71;99654.97;4438057;32;33177;-84
2024/01/08 07:20:42;;;;;;;0.77;0.77;;;;;;;0.86;56.11;99661.81;4465557;32;33970;-82
2024/01/08 07:23:12;;;;;;;6.05;3.45;;;;;;;1.34;55.14;99670.12;4453278;32;33349;-83
2024/01/08 07:25:41;;;;;;;2.67;2.47;;;;;;;1.20;55.34;99673.69;4460368;32;32850;-83
2024/01/08 07:28:16;;;;;;;1.55;1.23;;;;;;;1.09;56.20;99682.44;4448671;32;32172;-82
2024/01/08 07:30:45;;;;;;;0.88;0.88;;;;;;;1.31;55.54;99670.16;4465344;31;33417;-82
2024/01/08 07:33:13;;;;;;;1.17;1.08;;;;;;;1.40;54.38;99675.28;4452252;32;33145;-82
2024/01/08 07:35:40;;;;;;;0.32;0.32;;;;;;;1.71;53.70;99681.03;4451195;32;32170;-82
2024/01/08 07:38:08;;;;;;;0.30;0.30;;;;;;;1.49;54.17;99688.19;4442536;32;32988;-82
2024/01/08 07:40:36;;;;;;;0.55;0.55;;;;;;;1.33;54.80;99689.19;4453298;32;33431;-82
2024/01/08 07:43:04;;;;;;;3.87;3.53;;;;;;;1.03;55.45;99692.00;4446206;32;32253;-83
2024/01/08 07:45:32;;;;;;;0.82;0.80;;;;;;;1.06;56.34;99696.34;4451113;32;32396;-82
2024/01/08 07:48:00;;;;;;;0.80;0.80;;;;;;;1.01;56.38;99709.38;4437071;32;33149;-82
2024/01/08 07:50:28;;;;;;;0.32;0.32;;;;;;;1.34;55.35;99710.00;4448230;32;34598;-82
2024/01/08 07:52:56;;;;;;;0.52;0.52;;;;;;;1.60;55.06;99707.19;4453415;32;34507;-82
2024/01/08 07:55:24;;;;;;;0.45;0.45;;;;;;;1.70;55.02;99716.63;4467800;32;33341;-80
2024/01/08 07:57:51;;;;;;;;;;;;;;;1.09;57.09;99724.91;4446144;32;33653;-80
2024/01/08 08:00:21;;;;;;;;;;;;;;;1.49;56.16;99727.22;4448248;32;32884;-83
2024/01/08 08:02:50;;;;;;;1.85;1.75;;;;;;;1.39;55.97;99726.44;4462787;32;34149;-80
2024/01/08 08:05:19;;;;;;;1.48;1.27;;;;;;;1.15;56.45;99724.03;4465089;32;34144;-80
2024/01/08 08:07:47;;;;;;;0.37;0.37;;;;;;;1.52;55.96;99735.03;4462276;32;33414;-80
2024/01/08 08:10:15;;;;;;;0.55;0.55;;;;;;;1.65;56.10;99744.44;4468271;32;33785;-81
2024/01/08 08:12:43;;;;;;;1.40;1.30;;;;;;;1.81;55.20;99744.31;4469675;32;32428;-80
2024/01/08 08:15:10;;;;;;;0.50;0.50;;;;;;;1.87;54.84;99744.25;4443716;32;31883;-80
2024/01/08 08:17:41;;;;;;;1.20;1.15;;;;;;;2.27;52.92;99740.34;4458496;32;32958;-80
2024/01/08 08:20:10;;;;;;;0.20;0.20;;;;;;;2.10;54.09;99747.50;4448642;32;33962;-81
2024/01/08 08:22:38;;;;;;;0.80;0.75;;;;;;;1.82;54.94;99751.25;4454589;32;34090;-81
2024/01/08 08:25:10;;;;;;;;;;;;;;;1.66;54.76;99751.38;4459543;32;33307;-81
2024/01/08 08:27:38;;;;;;;0.20;0.20;;;;;;;1.81;54.72;99762.56;4451608;32;33207;-81
2024/01/08 08:30:08;;;;;;;0.00;0.00;;;;;;;1.48;56.32;99767.16;4450886;32;33193;-80
2024/01/08 08:32:36;;;;;;;0.00;0.00;;;;;;;1.96;54.92;99770.22;4461776;32;32477;-80
2024/01/08 08:35:04;;;;;;;0.52;0.52;;;;;;;1.97;54.51;99771.94;4462296;32;33537;-80
2024/01/08 08:37:32;;;;;;;0.30;0.30;;;;;;;1.89;54.44;99776.34;4452937;32;33723;-80
2024/01/08 08:40:19;;;;;;;0.90;0.85;;;;;;;2.44;52.50;99778.41;4462654;32;33863;-80
2024/01/08 08:42:46;;;;;;;0.03;0.03;;;;;;;2.59;52.02;99777.38;4443029;32;33623;-80
2024/01/08 08:45:17;;;;;;;0.85;0.85;;;;;;;2.42;52.01;99785.34;4470072;32;34133;-80
2024/01/08 08:47:45;;;;;;;0.00;0.00;;;;;;;2.21;52.96;99795.13;4452746;32;34585;-80
2024/01/08 08:50:14;;;;;;;3.00;1.95;;;;;;;2.38;53.19;99791.50;4439255;32;33023;-80
2024/01/08 08:52:43;;;;;;;0.30;0.30;;;;;;;2.37;53.17;99797.56;4460832;32;34354;-80
2024/01/08 08:55:12;;;;;;;0.82;0.82;;;;;;;2.27;53.21;99800.28;4455719;32;32130;-80
2024/01/08 08:57:41;;;;;;;0.40;0.40;;;;;;;2.36;54.00;99796.72;4449237;32;33724;-81
2024/01/08 09:00:09;;;;;;;0.30;0.30;;;;;;;2.31;53.69;99790.69;4450600;32;32665;-81
2024/01/08 09:02:39;;;;;;;1.40;1.37;;;;;;;2.21;53.21;99796.88;4447592;32;32588;-81
2024/01/08 09:05:07;;;;;;;2.28;1.98;;;;;;;1.98;53.87;99799.69;4447639;32;32651;-80
2024/01/08 09:07:36;;;;;;;0.00;0.00;;;;;;;2.76;51.31;99791.06;4451420;32;34352;-80
2024/01/08 09:10:05;;;;;;;0.47;0.47;;;;;;;2.23;52.81;99801.22;4465371;32;33443;-81
2024/01/08 09:12:32;;;;;;;1.90;1.77;;;;;;;2.26;52.66;99808.13;4449220;32;33996;-80
2024/01/08 09:15:00;;;;;;;0.10;0.10;;;;;;;2.17;52.58;99809.06;4464580;32;33107;-80
2024/01/08 09:17:29;;;;;;;0.05;0.05;;;;;;;2.16;52.38;99815.16;4453710;32;34577;-80
2024/01/08 09:19:57;;;;;;;0.98;0.73;;;;;;;2.44;52.20;99809.69;4465276;32;33632;-80
2024/01/08 09:22:25;;;;;;;0.32;0.32;;;;;;;2.37;52.60;99808.00;4462449;32;34155;-81
2024/01/08 09:24:53;;;;;;;1.10;0.95;;;;;;;2.37;52.70;99823.63;4449277;32;33116;-81
2024/01/08 09:27:20;;;;;;;1.08;0.98;;;;;;;2.29;52.77;99816.78;4463418;32;34520;-81
2024/01/08 09:29:49;;;;;;;0.55;0.55;;;;;;;2.40;52.64;99824.47;4470329;32;33945;-81
2024/01/08 09:32:17;;;;;;;0.80;0.62;;;;;;;2.51;52.52;99821.75;4464748;32;34281;-82
2024/01/08 09:34:44;;;;;;;1.23;1.17;;;;;;;2.70;51.87;99817.19;4453688;32;33219;-81
2024/01/08 09:37:12;;;;;;;2.30;1.87;;;;;;;2.82;51.27;99817.91;4441618;32;32722;-81
2024/01/08 09:39:40;;;;;;;0.85;0.85;;;;;;;2.83;50.98;99810.97;4442902;32;33291;-81
2024/01/08 09:42:08;;;;;;;1.98;1.85;;;;;;;2.94;50.62;99810.81;4455359;32;34451;-81
2024/01/08 09:44:37;;;;;;;1.73;1.65;;;;;;;2.93;50.43;99814.31;4456736;32;32143;-80
2024/01/08 09:47:06;;;;;;;0.50;0.50;;;;;;;2.62;51.85;99814.69;4460442;32;33717;-81
2024/01/08 09:49:34;;;;;;;0.73;0.73;;;;;;;2.77;51.16;99809.28;4450214;32;33499;-80
2024/01/08 09:52:02;;;;;;;1.60;1.50;;;;;;;2.76;51.14;99818.00;4451675;32;33015;-80
2024/01/08 09:54:31;;;;;;;0.00;0.00;;;;;;;2.94;50.66;99821.25;4456164;32;34118;-81
2024/01/08 09:56:59;;;;;;;0.90;0.90;;;;;;;2.83;51.36;99811.81;4456891;32;33064;-79
2024/01/08 09:59:27;;;;;;;0.82;0.82;;;;;;;3.05;50.87;99809.81;4449391;32;33422;-79
2024/01/08 10:01:56;;;;;;;1.50;1.15;;;;;;;2.73;52.09;99815.41;4460783;32;33873;-79
2024/01/08 10:04:25;;;;;;;0.20;0.20;;;;;;;2.48;52.34;99809.63;4465899;32;32739;-79
2024/01/08 10:07:06;;;;;;;1.17;1.12;;;;;;;2.45;52.38;99811.41;4450343;32;34148;-79
2024/01/08 10:09:35;;;;;;;0.47;0.35;;;;;;;2.21;54.13;99815.97;4446507;32;32759;-79
2024/01/08 10:12:06;;;;;;;2.17;1.45;;;;;;;2.85;52.06;99808.31;4438427;32;32548;-79
2024/01/08 10:14:34;;;;;;;0.75;0.55;;;;;;;2.58;53.17;99806.94;4464618;32;33639;-79
2024/01/08 10:17:02;;;;;;;1.12;0.73;;;;;;;2.19;53.49;99809.06;4462791;32;33798;-79
2024/01/08 10:19:30;;;;;;;0.70;0.70;;;;;;;2.70;52.57;99812.84;4445261;32;33189;-79
2024/01/08 10:22:09;;;;;;;0.75;0.75;;;;;;;3.20;50.84;99805.28;4449522;32;33835;-79
2024/01/08 10:24:42;;;;;;;0.90;0.90;;;;;;;2.59;52.97;99819.06;4466624;32;32515;-79
2024/01/08 10:27:11;;;;;;;2.65;1.95;;;;;;;2.79;52.71;99796.22;4435437;32;32882;-79
2024/01/08 10:29:40;;;;;;;1.35;1.10;;;;;;;3.22;50.39;99801.75;4466486;32;34492;-79
2024/01/08 10:32:10;;;;;;;0.47;0.47;;;;;;;3.45;50.05;99792.72;4459545;32;32624;-79
2024/01/08 10:34:41;;;;;;;2.27;2.07;;;;;;;2.95;51.93;99807.34;4467758;32;33073;-80
2024/01/08 10:37:09;;;;;;;0.35;0.35;;;;;;;2.87;51.82;99806.56;4460987;32;33154;-79
2024/01/08 10:39:38;;;;;;;0.98;0.85;;;;;;;2.82;51.93;99801.41;4475227;31;31637;-79
2024/01/08 10:42:18;;;;;;;0.85;0.85;;;;;;;2.85;51.97;99803.09;4452515;32;34141;-80
2024/01/08 10:44:46;;;;;;;0.45;0.45;;;;;;;3.31;50.83;99799.00;4438470;32;32213;-79
2024/01/08 10:47:22;;;;;;;1.40;1.35;;;;;;;3.37;51.24;99799.81;4452399;32;32272;-80
2024/01/08 10:49:58;;;;;;;0.30;0.30;;;;;;;2.68;52.50;99809.41;4449989;32;33282;-79
2024/01/08 10:52:32;;;;;;;0.28;0.28;;;;;;;3.20;51.53;99811.34;4459964;32;33793;-79
2024/01/08 10:55:06;;;;;;;1.65;1.55;;;;;;;3.01;52.34;99809.87;4463734;32;33096;-79
2024/01/08 10:58:01;;;;;;;0.20;0.20;;;;;;;3.07;52.20;99810.66;4436232;32;33064;-79
2024/01/08 11:00:29;;;;;;;1.30;1.20;;;;;;;3.27;51.48;99814.72;4460277;32;33679;-79
2024/01/08 11:02:58;;;;;;;2.50;1.55;;;;;;;3.25;51.43;99811.28;4450362;32;33617;-79
2024/01/08 11:05:32;;;;;;;0.85;0.85;;;;;;;2.92;52.58;99817.81;4449435;32;33600;-79
2024/01/08 11:08:00;;;;;;;0.90;0.90;;;;;;;3.20;51.80;99818.31;4444633;32;33936;-79
2024/01/08 11:10:28;;;;;;;1.65;1.55;;;;;;;3.22;51.86;99817.41;4460516;32;33992;-80
2024/01/08 11:12:56;;;;;;;1.45;1.35;;;;;;;3.16;51.76;99817.50;4447078;32;34562;-79
2024/01/08 11:15:26;;;;;;;1.73;1.20;;;;;;;3.43;50.91;99815.41;4425966;32;34450;-79
2024/01/08 11:17:57;;;;;;;1.75;1.52;;;;;;;3.00;52.61;99815.97;4444875;32;31885;-80
2024/01/08 11:20:46;;;;;;;0.65;0.65;;;;;;;3.20;52.12;99819.19;4450473;32;34006;-80
2024/01/08 11:23:34;;;;;;;0.55;0.55;;;;;;;3.40;50.96;99813.69;4431774;32;33337;-80
2024/01/08 11:26:04;;;;;;;0.52;0.52;;;;;;;3.56;50.86;99812.59;4463390;32;32242;-80
2024/01/08 11:28:34;;;;;;;0.50;0.50;;;;;;;3.46;50.88;99820.56;4452063;32;34041;-79
2024/01/08 11:31:20;;;;;;;0.28;0.28;;;;;;;3.14;52.24;99818.41;4463464;32;33310;-80
2024/01/08 11:34:07;;;;;;;0.35;0.35;;;;;;;3.69;50.29;99820.22;4468536;32;31980;-80
2024/01/08 11:36:45;;;;;;;0.57;0.57;;;;;;;3.64;51.82;99820.28;4465116;32;32618;-80
2024/01/08 11:39:20;;;;;;;0.25;0.25;;;;;;;3.71;50.79;99823.69;4449341;32;32646;-80
2024/01/08 11:41:47;;;;;;;0.20;0.20;;;;;;;3.87;50.47;99821.69;4451249;32;33319;-80
2024/01/08 11:44:16;;;;;;;1.55;1.45;;;;;;;3.71;50.61;99824.53;4450742;32;34385;-80
2024/01/08 11:46:45;;;;;;;1.85;1.50;;;;;;;3.97;50.66;99821.50;4456996;32;100119;-80
2024/01/08 11:49:12;;;;;;;0.10;0.10;;;;;;;4.23;49.50;99815.84;4447179;32;32838;-80